Time;durP1;ratioP1;P1;durP2;ratioP2;P2;SDS_P1;SDS_P2;PMS_P1;PMS_P2;Temp;Humidity;BMP_temperature;BMP_pressure;BME280_temperature;BME280_humidity;BME280_pressure;Samples;Min_cycle;Max_cycle;Signal;HPM_P1;HPM_P2
2023/03/24 00:01:52;;;;;;;10.73;4.68;;;;;;;15.88;46.60;97735.06;4486745;31;20120;-80
2023/03/24 00:04:20;;;;;;;9.50;4.03;;;;;;;15.75;46.85;97736.00;4486299;31;20087;-80
2023/03/24 00:06:48;;;;;;;16.08;4.65;;;;;;;15.69;46.93;97732.06;4486708;31;20127;-80
2023/03/24 00:09:15;;;;;;;11.40;4.12;;;;;;;15.00;48.44;97722.81;4486716;31;20146;-80
2023/03/24 00:11:43;;;;;;;9.82;4.32;;;;;;;14.41;49.80;97730.06;4486111;32;20100;-80
2023/03/24 00:14:13;;;;;;;11.35;4.28;;;;;;;14.24;50.67;97719.91;4486610;31;20155;-80
2023/03/24 00:16:44;;;;;;;9.68;4.12;;;;;;;14.30;50.43;97722.13;4486602;31;20157;-80
2023/03/24 00:19:13;;;;;;;11.70;5.07;;;;;;;14.86;49.25;97717.69;4486197;32;20136;-80
2023/03/24 00:21:41;;;;;;;10.68;4.35;;;;;;;14.28;50.73;97709.25;4486430;32;20538;-80
2023/03/24 00:24:10;;;;;;;10.30;4.25;;;;;;;14.11;51.60;97712.88;4486285;31;20140;-80
2023/03/24 00:26:39;;;;;;;10.25;4.47;;;;;;;14.47;50.55;97716.75;4484938;32;20427;-81
2023/03/24 00:29:09;;;;;;;12.05;4.30;;;;;;;14.67;50.64;97705.03;4486177;32;20111;-80
2023/03/24 00:31:40;;;;;;;11.82;4.75;;;;;;;14.57;50.52;97704.84;4486408;31;20096;-81
2023/03/24 00:34:09;;;;;;;10.93;4.57;;;;;;;14.50;50.26;97695.75;4486367;31;20099;-81
2023/03/24 00:36:36;;;;;;;9.98;4.53;;;;;;;13.01;55.68;97693.56;4485078;32;20388;-80
2023/03/24 00:39:05;;;;;;;11.10;4.85;;;;;;;11.57;62.17;97686.88;4485694;32;20538;-80
2023/03/24 00:41:32;;;;;;;12.15;4.53;;;;;;;12.15;60.36;97687.22;4485924;31;20127;-80
2023/03/24 00:44:02;;;;;;;10.00;4.18;;;;;;;13.05;57.63;97683.84;4486129;31;20136;-80
2023/03/24 00:46:29;;;;;;;9.88;4.75;;;;;;;13.48;53.60;97681.34;4484627;32;20378;-80
2023/03/24 00:49:02;;;;;;;11.00;4.90;;;;;;;11.72;61.00;97682.69;4486289;31;20391;-81
2023/03/24 00:51:32;;;;;;;12.13;4.80;;;;;;;13.63;53.70;97682.19;4488451;31;20100;-81
2023/03/24 00:54:00;;;;;;;10.30;4.60;;;;;;;13.82;51.70;97680.12;4488058;31;20103;-80
2023/03/24 00:56:30;;;;;;;10.30;4.68;;;;;;;14.49;50.01;97681.12;4488353;31;20088;-81
2023/03/24 00:58:57;;;;;;;9.90;4.53;;;;;;;14.88;47.77;97682.03;4488332;31;20110;-81
2023/03/24 01:01:26;;;;;;;10.27;4.78;;;;;;;14.70;47.82;97671.13;4487944;31;20088;-81
2023/03/24 01:03:53;;;;;;;16.52;5.00;;;;;;;15.22;46.87;97681.47;4488185;31;20152;-80
2023/03/24 01:06:21;;;;;;;9.88;4.47;;;;;;;14.91;47.06;97674.91;4488289;31;20068;-80
2023/03/24 01:08:52;;;;;;;11.52;4.70;;;;;;;14.48;48.87;97666.47;4487844;31;20170;-80
2023/03/24 01:11:24;;;;;;;12.13;4.70;;;;;;;15.06;48.44;97665.25;4488356;31;20096;-80
2023/03/24 01:13:53;;;;;;;11.73;5.30;;;;;;;14.35;50.29;97666.38;4487936;31;20483;-80
2023/03/24 01:16:24;;;;;;;11.10;4.40;;;;;;;14.74;49.66;97663.00;4488243;31;20419;-81
2023/03/24 01:18:52;;;;;;;11.38;4.60;;;;;;;14.85;49.22;97657.09;4488121;31;20141;-80
2023/03/24 01:21:19;;;;;;;14.13;4.90;;;;;;;14.46;49.95;97657.94;4487895;31;20153;-80
2023/03/24 01:23:46;;;;;;;9.68;4.43;;;;;;;13.32;55.39;97661.56;4488092;31;20084;-80
2023/03/24 01:26:13;;;;;;;11.85;5.45;;;;;;;13.87;51.96;97667.72;4488092;31;20375;-80
2023/03/24 01:28:42;;;;;;;10.77;4.65;;;;;;;13.73;53.09;97655.63;4486511;32;20106;-80
2023/03/24 01:31:10;;;;;;;10.52;4.50;;;;;;;14.09;50.61;97662.03;4488150;31;20096;-81
2023/03/24 01:33:37;;;;;;;11.35;4.70;;;;;;;14.69;48.29;97659.06;4488145;31;20087;-81
2023/03/24 01:36:05;;;;;;;10.73;4.65;;;;;;;15.18;46.61;97661.81;4487805;31;20411;-80
2023/03/24 01:38:33;;;;;;;10.40;4.93;;;;;;;14.00;48.74;97654.81;4487919;31;20100;-80
2023/03/24 01:41:00;;;;;;;10.40;4.85;;;;;;;14.64;47.23;97655.91;4487876;31;20499;-80
2023/03/24 01:43:32;;;;;;;10.73;4.50;;;;;;;14.55;47.39;97653.91;4486360;32;20215;-80
2023/03/24 01:46:04;;;;;;;12.02;5.37;;;;;;;14.10;48.44;97659.34;4488114;31;20072;-80
2023/03/24 01:48:39;;;;;;;12.20;5.18;;;;;;;13.76;49.60;97647.66;4487914;31;20366;-80
2023/03/24 01:51:08;;;;;;;10.75;5.10;;;;;;;14.52;48.45;97652.34;4486551;31;20375;-81
2023/03/24 01:53:37;;;;;;;11.52;4.65;;;;;;;14.14;49.57;97645.25;4487923;31;20397;-81
2023/03/24 01:56:05;;;;;;;10.98;5.25;;;;;;;14.33;49.17;97642.28;4487615;31;20103;-80
2023/03/24 01:58:33;;;;;;;12.32;5.50;;;;;;;14.50;49.04;97650.81;4487824;31;20160;-80
2023/03/24 02:01:00;;;;;;;11.05;4.85;;;;;;;14.55;48.51;97643.53;4487880;32;20093;-80
2023/03/24 02:03:32;;;;;;;10.60;4.65;;;;;;;14.36;48.26;97629.16;4487516;31;20088;-80
2023/03/24 02:06:01;;;;;;;10.55;4.75;;;;;;;14.37;47.23;97625.63;4486878;32;20099;-80
2023/03/24 02:08:54;;;;;;;11.27;5.45;;;;;;;13.67;48.83;97629.22;4486560;32;20127;-80
2023/03/24 02:11:22;;;;;;;10.30;4.80;;;;;;;13.71;49.28;97628.09;4487413;31;20084;-80
2023/03/24 02:13:50;;;;;;;12.70;4.78;;;;;;;13.77;49.23;97625.97;4487871;31;20103;-81
2023/03/24 02:16:36;;;;;;;9.57;4.62;;;;;;;13.74;48.64;97623.56;4487845;31;20081;-80
2023/03/24 02:19:18;;;;;;;12.10;4.57;;;;;;;13.27;49.76;97616.09;4487374;31;20101;-80
2023/03/24 02:22:06;;;;;;;9.90;4.20;;;;;;;13.19;49.95;97611.41;4487752;31;20088;-80
2023/03/24 02:24:54;;;;;;;10.32;3.92;;;;;;;12.90;50.70;97607.91;4487404;31;20144;-80
2023/03/24 02:27:31;;;;;;;10.77;4.28;;;;;;;13.37;50.19;97600.84;4486703;32;20110;-81
2023/03/24 02:30:12;;;;;;;11.25;3.83;;;;;;;13.41;50.39;97603.16;4486723;32;20108;-80
2023/03/24 02:33:03;;;;;;;9.52;3.90;;;;;;;13.36;50.94;97596.56;4486182;32;20096;-80
2023/03/24 02:35:48;;;;;;;10.70;4.50;;;;;;;13.44;50.59;97586.59;4487746;31;20126;-80
2023/03/24 02:38:45;;;;;;;11.18;4.25;;;;;;;13.25;50.92;97579.09;4487183;31;20126;-80
2023/03/24 02:41:23;;;;;;;9.30;4.12;;;;;;;13.09;51.56;97574.00;4487469;31;20153;-80
2023/03/24 02:44:10;;;;;;;11.73;4.12;;;;;;;12.93;52.96;97588.78;4486479;32;20751;-80
2023/03/24 02:47:06;;;;;;;10.43;4.30;;;;;;;12.68;53.59;97591.97;4486294;32;20193;-81
2023/03/24 02:49:47;;;;;;;11.43;4.12;;;;;;;12.13;55.78;97590.81;4464749;31;20423;-81
2023/03/24 02:52:36;;;;;;;10.20;4.22;;;;;;;12.23;55.29;97585.94;4486112;31;20166;-80
2023/03/24 02:55:09;;;;;;;11.38;4.62;;;;;;;12.41;54.54;97578.88;4487622;31;20111;-80
2023/03/24 02:57:47;;;;;;;8.95;4.18;;;;;;;12.26;55.42;97578.00;4486442;32;20130;-80
2023/03/24 03:00:29;;;;;;;12.13;4.60;;;;;;;12.50;54.58;97582.69;4487271;31;20072;-80
2023/03/24 03:03:02;;;;;;;9.32;4.10;;;;;;;12.89;53.26;97582.12;4486441;32;20115;-80
2023/03/24 03:05:43;;;;;;;15.55;4.90;;;;;;;12.91;53.37;97578.50;4486488;32;20107;-80
2023/03/24 03:08:13;;;;;;;10.77;4.28;;;;;;;13.32;51.72;97577.81;4487062;31;20093;-80
2023/03/24 03:10:43;;;;;;;10.73;4.72;;;;;;;12.89;52.59;97585.53;4486230;32;20076;-80
2023/03/24 03:13:16;;;;;;;9.60;4.10;;;;;;;12.54;54.03;97572.06;4485305;32;20459;-80
2023/03/24 03:15:46;;;;;;;10.23;4.57;;;;;;;12.39;54.38;97578.13;4487469;31;20156;-80
2023/03/24 03:18:19;;;;;;;11.10;5.00;;;;;;;13.29;52.67;97573.66;4486095;32;20092;-80
2023/03/24 03:20:52;;;;;;;9.98;4.50;;;;;;;13.36;53.04;97570.66;4485824;32;20092;-80
2023/03/24 03:23:35;;;;;;;10.27;4.50;;;;;;;13.52;52.63;97566.22;4486213;32;20152;-81
2023/03/24 03:26:05;;;;;;;9.50;4.35;;;;;;;13.26;53.04;97565.22;4486177;32;20149;-80
2023/03/24 03:28:37;;;;;;;11.90;4.70;;;;;;;13.13;52.86;97559.09;4485751;32;20120;-80
2023/03/24 03:31:13;;;;;;;12.05;4.45;;;;;;;13.54;52.58;97562.59;4487166;31;20145;-80
2023/03/24 03:33:50;;;;;;;13.00;5.00;;;;;;;13.70;52.21;97554.66;4486153;32;20104;-80
2023/03/24 03:36:30;;;;;;;12.63;4.80;;;;;;;13.25;54.29;97555.78;4485822;32;20108;-80
2023/03/24 03:39:05;;;;;;;11.23;5.30;;;;;;;13.64;53.33;97557.66;4485832;32;20156;-80
2023/03/24 03:41:32;;;;;;;13.13;4.87;;;;;;;12.82;54.78;97547.97;4486534;32;20099;-80
2023/03/24 03:44:00;;;;;;;9.68;4.53;;;;;;;12.49;54.86;97550.81;4486916;32;20093;-81
2023/03/24 03:46:27;;;;;;;12.60;5.00;;;;;;;12.58;54.17;97549.44;4487115;31;20153;-81
2023/03/24 03:48:54;;;;;;;10.30;4.80;;;;;;;12.59;53.06;97546.75;4486562;31;20095;-81
2023/03/24 03:51:21;;;;;;;14.65;5.55;;;;;;;12.33;53.75;97537.91;4486969;31;20540;-81
2023/03/24 03:54:00;;;;;;;11.68;5.03;;;;;;;13.22;51.83;97549.03;4486971;31;20105;-81
2023/03/24 03:56:29;;;;;;;9.93;4.80;;;;;;;13.39;50.76;97547.97;4486658;31;20084;-81
2023/03/24 03:58:57;;;;;;;10.80;5.03;;;;;;;13.40;50.51;97554.84;4485487;32;20106;-81
2023/03/24 04:01:27;;;;;;;11.20;4.53;;;;;;;13.62;49.26;97548.34;4486764;31;20430;-81
2023/03/24 04:04:19;;;;;;;12.00;4.80;;;;;;;13.87;47.89;97553.63;4485231;32;20104;-81
2023/03/24 04:06:58;;;;;;;13.02;5.35;;;;;;;13.27;49.01;97553.91;4486760;31;20088;-81
2023/03/24 04:09:24;;;;;;;16.08;7.47;;;;;;;13.72;48.71;97552.00;4486216;31;20107;-80
2023/03/24 04:12:10;;;;;;;;;;;;;;;13.38;50.50;97556.69;4486975;31;20115;-81
2023/03/24 04:14:53;;;;;;;23.27;10.77;;;;;;;12.58;54.26;97547.69;4486630;32;19975;-80
2023/03/24 04:17:48;;;;;;;30.05;13.52;;;;;;;13.28;52.74;97548.63;4485074;32;20100;-80
2023/03/24 04:20:37;;;;;;;25.37;10.50;;;;;;;12.80;54.09;97549.00;4486503;31;20136;-80
2023/03/24 04:23:13;;;;;;;31.90;12.95;;;;;;;13.57;52.05;97562.41;4486412;32;20088;-81
2023/03/24 04:25:57;;;;;;;17.70;7.25;;;;;;;12.85;52.87;97554.72;4488379;31;20096;-81
2023/03/24 04:28:36;;;;;;;12.20;5.45;;;;;;;12.19;53.92;97553.41;4488649;31;20108;-80
2023/03/24 04:31:29;;;;;;;18.52;7.07;;;;;;;12.08;53.48;97551.41;4488210;31;20149;-81
2023/03/24 04:34:11;;;;;;;18.10;6.97;;;;;;;12.41;52.93;97551.25;4488554;31;20145;-81
2023/03/24 04:36:49;;;;;;;14.20;6.78;;;;;;;11.98;54.89;97549.44;4488766;31;20097;-81
2023/03/24 04:39:24;;;;;;;20.00;7.93;;;;;;;12.51;53.06;97554.13;4486934;32;20109;-81
2023/03/24 04:41:51;;;;;;;15.32;7.43;;;;;;;12.63;52.73;97556.00;4487128;32;20103;-81
2023/03/24 04:44:20;;;;;;;16.45;7.80;;;;;;;12.36;52.95;97553.28;4486907;32;20102;-81
2023/03/24 04:46:54;;;;;;;15.27;7.10;;;;;;;12.71;52.43;97556.38;4488448;31;20110;-81
2023/03/24 04:49:24;;;;;;;14.82;7.03;;;;;;;11.79;54.60;97552.19;4487241;32;20100;-81
2023/03/24 04:51:51;;;;;;;14.55;6.30;;;;;;;11.06;58.71;97559.59;4488091;31;20076;-80
2023/03/24 04:54:19;;;;;;;15.10;5.97;;;;;;;10.54;62.37;97558.84;4488411;31;20496;-80
2023/03/24 04:56:51;;;;;;;13.20;5.70;;;;;;;10.36;58.58;97561.41;4487233;32;20181;-81
2023/03/24 04:59:18;;;;;;;11.10;5.20;;;;;;;11.73;52.60;97555.13;4487940;31;20097;-80
2023/03/24 05:01:49;;;;;;;11.82;5.53;;;;;;;11.48;53.68;97561.63;4488343;31;20136;-80
2023/03/24 05:04:18;;;;;;;12.68;5.87;;;;;;;11.57;53.25;97548.19;4488290;31;20204;-80
2023/03/24 05:06:45;;;;;;;11.75;5.07;;;;;;;12.39;51.53;97550.50;4486823;32;20115;-81
2023/03/24 05:09:13;;;;;;;12.20;5.18;;;;;;;11.95;52.04;97550.44;4488259;31;20427;-80
2023/03/24 05:11:40;;;;;;;14.93;6.22;;;;;;;11.97;52.27;97552.94;4488257;31;20085;-81
2023/03/24 05:14:07;;;;;;;17.62;6.68;;;;;;;10.97;55.53;97552.31;4487936;31;20514;-80
2023/03/24 05:16:34;;;;;;;14.07;6.12;;;;;;;12.01;53.37;97552.69;4488400;31;20729;-82
2023/03/24 05:19:02;;;;;;;18.02;7.65;;;;;;;13.04;50.91;97561.31;4487832;32;20088;-81
2023/03/24 05:21:29;;;;;;;15.70;7.25;;;;;;;13.46;50.40;97561.41;4487926;31;20092;-82
2023/03/24 05:23:59;;;;;;;16.90;6.90;;;;;;;13.42;50.26;97570.31;4488123;31;20114;-81
2023/03/24 05:26:26;;;;;;;15.35;7.00;;;;;;;13.25;51.12;97568.72;4486625;32;20157;-83
2023/03/24 05:28:53;;;;;;;15.63;7.10;;;;;;;14.04;48.95;97576.72;4487948;31;20104;-83
2023/03/24 05:31:20;;;;;;;17.05;7.95;;;;;;;14.04;49.03;97573.31;4486942;31;20092;-83
2023/03/24 05:33:47;;;;;;;22.70;11.07;;;;;;;13.25;51.65;97569.56;4486717;32;20068;-83
2023/03/24 05:36:15;;;;;;;23.73;9.95;;;;;;;13.95;51.06;97560.91;4487832;31;20166;-82
2023/03/24 05:38:42;;;;;;;14.75;6.75;;;;;;;13.82;52.96;97566.03;4487936;31;20097;-83
2023/03/24 05:41:09;;;;;;;16.40;7.35;;;;;;;13.87;53.70;97572.59;4487503;31;20502;-82
2023/03/24 05:43:36;;;;;;;17.60;8.02;;;;;;;14.50;52.52;97578.94;4488120;31;20072;-83
2023/03/24 05:46:03;;;;;;;16.30;7.75;;;;;;;14.72;50.12;97581.78;4487973;31;20439;-83
2023/03/24 05:48:30;;;;;;;14.40;7.75;;;;;;;15.23;49.05;97576.59;4487715;31;20114;-83
2023/03/24 05:50:56;;;;;;;14.85;7.50;;;;;;;15.91;48.37;97581.34;4487983;31;20096;-84
2023/03/24 05:53:24;;;;;;;16.45;6.60;;;;;;;16.85;46.36;97580.53;4487933;31;20084;-83
2023/03/24 05:55:52;;;;;;;16.30;7.15;;;;;;;17.91;44.17;97574.00;4487580;31;20089;-83
2023/03/24 05:58:20;;;;;;;14.18;5.78;;;;;;;18.68;43.10;97568.59;4487969;31;20096;-83
2023/03/24 06:00:47;;;;;;;12.98;5.53;;;;;;;18.66;41.71;97565.31;4487875;31;20087;-84
2023/03/24 06:03:15;;;;;;;11.15;5.62;;;;;;;19.92;39.35;97564.06;4487487;32;20153;-83
2023/03/24 06:05:44;;;;;;;12.52;5.70;;;;;;;20.94;38.21;97561.81;4487802;32;20128;-83
2023/03/24 06:08:12;;;;;;;11.38;5.62;;;;;;;21.60;35.95;97569.63;4487929;31;20107;-84
2023/03/24 06:10:39;;;;;;;11.35;5.43;;;;;;;21.57;35.93;97566.47;4473372;31;20115;-84
2023/03/24 06:13:07;;;;;;;10.30;5.53;;;;;;;21.99;35.13;97563.31;4486898;32;20426;-83
2023/03/24 06:15:38;;;;;;;11.52;5.20;;;;;;;22.13;34.56;97568.94;4486333;32;20108;-83
2023/03/24 06:18:06;;;;;;;11.23;5.28;;;;;;;22.67;33.62;97566.28;4487973;31;20092;-83
2023/03/24 06:20:34;;;;;;;12.55;5.03;;;;;;;22.85;33.58;97567.06;4487724;31;20096;-83
2023/03/24 06:23:02;;;;;;;11.23;5.20;;;;;;;23.25;32.94;97573.56;4487458;31;20574;-84
2023/03/24 06:25:29;;;;;;;10.27;4.90;;;;;;;23.54;32.93;97565.31;4487586;31;20166;-83
2023/03/24 06:28:02;;;;;;;9.80;4.82;;;;;;;23.71;32.96;97567.03;4487632;31;20101;-83
2023/03/24 06:30:30;;;;;;;10.50;5.07;;;;;;;23.05;34.06;97558.00;4486296;31;20092;-83
2023/03/24 06:32:57;;;;;;;13.57;5.50;;;;;;;22.83;34.83;97557.66;4487712;31;20080;-83
2023/03/24 06:35:24;;;;;;;10.95;5.80;;;;;;;23.33;34.64;97560.47;4487718;31;20431;-83
2023/03/24 06:37:51;;;;;;;9.60;4.62;;;;;;;23.81;33.57;97561.66;4487279;31;20103;-83
2023/03/24 06:40:18;;;;;;;10.43;5.10;;;;;;;23.86;33.15;97559.38;4486370;31;20096;-83
2023/03/24 06:42:45;;;;;;;10.18;5.43;;;;;;;23.22;34.98;97566.00;4487357;31;20075;-83
2023/03/24 06:45:12;;;;;;;11.63;5.62;;;;;;;23.86;34.70;97565.47;4487154;31;20472;-83
2023/03/24 06:47:39;;;;;;;9.77;5.00;;;;;;;23.69;32.55;97573.47;4486717;31;20153;-83
2023/03/24 06:50:06;;;;;;;8.95;4.50;;;;;;;22.85;34.16;97559.19;4487507;32;20119;-83
2023/03/24 06:52:34;;;;;;;11.05;4.90;;;;;;;22.58;34.87;97564.56;4487143;31;20076;-83
2023/03/24 06:55:01;;;;;;;9.52;4.40;;;;;;;22.33;35.06;97566.12;4486360;32;20096;-84
2023/03/24 06:57:28;;;;;;;12.60;5.30;;;;;;;21.88;35.88;97569.59;4487543;31;20149;-82
2023/03/24 06:59:55;;;;;;;11.50;5.15;;;;;;;21.98;35.79;97559.88;4487162;31;20084;-83
2023/03/24 07:12:46;;;;;;;9.40;4.45;;;;;;;22.20;34.86;97551.56;4490945;32;20678;-83
2023/03/24 07:15:13;;;;;;;9.10;4.53;;;;;;;22.16;35.13;97552.84;4487577;31;20084;-84
2023/03/24 07:17:41;;;;;;;11.77;4.80;;;;;;;22.14;34.52;97554.00;4488347;31;20089;-82
2023/03/24 07:20:09;;;;;;;9.85;4.57;;;;;;;21.77;34.91;97552.25;4490436;31;20088;-82
2023/03/24 07:22:35;;;;;;;10.13;5.10;;;;;;;21.32;35.92;97552.22;4486890;31;20103;-82
2023/03/24 07:25:04;;;;;;;10.13;4.70;;;;;;;21.14;37.02;97559.16;4489048;31;20141;-83
2023/03/24 07:27:31;;;;;;;11.45;4.80;;;;;;;21.39;36.69;97561.16;4487680;32;20112;-82
2023/03/24 07:29:59;;;;;;;10.55;4.90;;;;;;;20.88;36.83;97546.69;4487577;32;20127;-82
2023/03/24 07:32:29;;;;;;;13.45;5.12;;;;;;;21.30;36.82;97557.62;4489577;31;20126;-81
2023/03/24 07:34:56;;;;;;;11.32;4.80;;;;;;;21.36;36.14;97557.00;4488657;31;20099;-81
2023/03/24 07:37:23;;;;;;;11.60;5.03;;;;;;;22.00;36.20;97555.28;4487069;32;20189;-82
2023/03/24 07:39:50;;;;;;;11.40;5.50;;;;;;;21.82;35.18;97557.91;4487235;31;20104;-84
2023/03/24 07:42:23;;;;;;;13.48;4.80;;;;;;;21.28;36.14;97566.59;4487417;31;20080;-83
2023/03/24 07:44:51;;;;;;;10.82;4.55;;;;;;;21.26;36.47;97565.91;4487600;31;20161;-84
2023/03/24 07:47:18;;;;;;;12.40;5.03;;;;;;;21.46;36.56;97564.03;4486286;32;20119;-82
2023/03/24 07:49:45;;;;;;;10.82;4.90;;;;;;;20.98;36.88;97565.00;4485662;32;20104;-82
2023/03/24 07:52:12;;;;;;;11.27;4.97;;;;;;;21.06;37.23;97563.34;4486873;31;20148;-83
2023/03/24 07:54:41;;;;;;;10.48;5.18;;;;;;;21.23;36.25;97560.91;4486896;31;20521;-83
2023/03/24 07:57:08;;;;;;;11.85;4.70;;;;;;;21.46;36.58;97559.59;4488605;31;20100;-83
2023/03/24 07:59:38;;;;;;;12.07;5.30;;;;;;;21.43;37.01;97548.56;4488345;31;20779;-82
2023/03/24 08:02:11;;;;;;;12.00;4.60;;;;;;;22.09;35.28;97546.53;4488992;31;20092;-83
2023/03/24 08:04:38;;;;;;;13.30;4.87;;;;;;;21.83;35.22;97541.16;4475365;32;20422;-83
2023/03/24 08:07:05;;;;;;;11.65;4.90;;;;;;;21.76;35.40;97539.28;4489086;31;20161;-83
2023/03/24 08:09:32;;;;;;;12.82;4.87;;;;;;;21.48;36.18;97534.06;4488481;31;20092;-83
2023/03/24 08:12:03;;;;;;;11.82;4.65;;;;;;;21.46;36.13;97532.53;4488736;31;20088;-82
2023/03/24 08:14:45;;;;;;;10.65;5.25;;;;;;;21.09;37.30;97531.56;4489488;31;20107;-83
2023/03/24 08:17:12;;;;;;;11.05;5.00;;;;;;;21.39;35.76;97527.06;4488639;31;20126;-83
2023/03/24 08:19:39;;;;;;;11.68;4.90;;;;;;;21.02;36.58;97517.34;4488616;31;20560;-82
2023/03/24 08:22:25;;;;;;;11.20;4.85;;;;;;;20.56;36.77;97514.75;4476193;32;20108;-82
2023/03/24 08:24:52;;;;;;;12.35;5.18;;;;;;;20.96;37.15;97510.09;4488107;31;20110;-83
2023/03/24 08:27:19;;;;;;;13.93;5.28;;;;;;;21.40;36.98;97509.50;4486785;31;20100;-83
2023/03/24 08:29:46;;;;;;;11.90;5.37;;;;;;;21.55;35.81;97500.97;4487982;31;20174;-82
2023/03/24 08:32:13;;;;;;;13.30;5.37;;;;;;;21.76;35.47;97507.75;4491230;31;20081;-83
2023/03/24 08:34:40;;;;;;;13.50;5.45;;;;;;;21.69;35.32;97502.28;4494067;31;20116;-83
2023/03/24 08:37:07;;;;;;;11.98;5.05;;;;;;;21.71;35.90;97513.47;4492726;32;20100;-82
2023/03/24 08:43:16;;;;;;;11.15;5.20;;;;;;;21.94;35.04;97516.50;4485262;32;20139;-82
2023/03/24 08:45:43;;;;;;;13.38;5.32;;;;;;;21.63;35.78;97518.63;4488438;31;20426;-82
2023/03/24 08:51:59;;;;;;;13.95;5.32;;;;;;;21.45;35.99;97523.00;4488425;32;20110;-85
2023/03/24 08:54:26;;;;;;;15.32;5.93;;;;;;;21.65;35.96;97517.50;4490616;31;20103;-83
2023/03/24 08:56:53;;;;;;;13.45;5.90;;;;;;;21.00;36.15;97516.69;4495012;32;20576;-83
2023/03/24 09:02:51;;;;;;;14.02;5.12;;;;;;;21.64;35.50;97517.66;4497513;32;20164;-82
2023/03/24 09:05:19;;;;;;;11.43;5.47;;;;;;;22.25;34.87;97516.16;4494035;32;20085;-83
2023/03/24 09:11:49;;;;;;;16.02;5.90;;;;;;;21.89;34.87;97516.09;4488800;32;20511;-82
2023/03/24 09:14:16;;;;;;;13.77;5.68;;;;;;;21.76;35.00;97505.12;4495167;31;20074;-82
2023/03/24 09:16:44;;;;;;;15.85;5.30;;;;;;;21.92;35.52;97513.19;4496101;31;20099;-81
2023/03/24 09:22:41;;;;;;;14.25;6.55;;;;;;;21.83;35.37;97509.66;4488057;32;20492;-82
2023/03/24 09:25:11;;;;;;;13.23;6.18;;;;;;;21.40;36.14;97501.63;4487590;31;20088;-81
2023/03/24 09:31:56;;;;;;;14.50;6.60;;;;;;;22.44;35.09;97508.09;4487859;32;20156;-80
2023/03/24 09:34:24;;;;;;;14.68;6.75;;;;;;;22.04;35.40;97496.22;4487927;31;20516;-81
2023/03/24 09:36:51;;;;;;;15.55;6.50;;;;;;;21.91;35.52;97495.78;4488014;31;20099;-80
2023/03/24 09:43:03;;;;;;;17.42;6.70;;;;;;;22.69;34.38;97491.50;4487795;32;20102;-80
2023/03/24 09:45:35;;;;;;;15.55;6.57;;;;;;;22.42;35.04;97499.50;4486554;32;20117;-79
2023/03/24 09:52:03;;;;;;;15.85;7.03;;;;;;;22.91;33.99;97492.81;4487881;32;20125;-80
2023/03/24 09:54:46;;;;;;;24.17;6.97;;;;;;;23.22;33.91;97487.03;4487539;31;20089;-79
2023/03/24 09:57:21;;;;;;;15.55;6.97;;;;;;;23.71;34.95;97492.47;4488111;31;20130;-79
2023/03/24 09:59:50;;;;;;;13.80;6.40;;;;;;;23.79;32.38;97493.31;4486633;32;20126;-79
2023/03/24 10:02:19;;;;;;;15.63;6.50;;;;;;;23.35;33.25;97484.78;4487520;31;20587;-79
2023/03/24 10:04:47;;;;;;;16.48;6.95;;;;;;;23.34;33.15;97494.50;4487676;31;20088;-79
2023/03/24 10:07:33;;;;;;;15.15;6.12;;;;;;;23.52;32.21;97490.94;4486104;32;20108;-80
2023/03/24 10:10:01;;;;;;;14.35;6.00;;;;;;;23.58;32.94;97492.91;4486509;32;20116;-79
2023/03/24 10:12:35;;;;;;;14.82;6.37;;;;;;;23.40;33.07;97490.41;4487656;31;20101;-80
2023/03/24 10:15:13;;;;;;;14.57;5.87;;;;;;;22.74;34.54;97475.25;4487457;31;20106;-80
2023/03/24 10:22:05;;;;;;;12.43;5.47;;;;;;;22.65;34.44;97460.41;4486419;32;20165;-79
2023/03/24 10:24:37;;;;;;;15.00;5.45;;;;;;;23.37;33.73;97462.56;4486417;32;20431;-79
2023/03/24 10:27:27;;;;;;;13.50;5.22;;;;;;;23.36;32.93;97453.03;4487589;31;20068;-79
2023/03/24 10:30:01;;;;;;;18.73;5.43;;;;;;;23.21;33.04;97461.72;4486286;32;20467;-79
2023/03/24 10:32:31;;;;;;;12.18;4.95;;;;;;;22.83;32.98;97461.16;4487674;31;20135;-80
2023/03/24 10:35:06;;;;;;;13.75;4.90;;;;;;;23.17;33.21;97447.19;4487573;31;20159;-79
2023/03/24 10:41:52;;;;;;;15.25;4.82;;;;;;;23.88;32.25;97458.09;4487609;32;20565;-79
2023/03/24 10:44:20;;;;;;;12.27;4.90;;;;;;;23.59;31.38;97450.66;4487021;31;20156;-79
2023/03/24 10:46:51;;;;;;;11.63;5.25;;;;;;;24.00;31.99;97447.25;4486054;32;20089;-79
2023/03/24 10:52:59;;;;;;;13.45;4.50;;;;;;;24.22;31.19;97447.41;4487451;32;20110;-79
2023/03/24 10:55:30;;;;;;;10.98;4.53;;;;;;;24.72;30.84;97449.00;4487793;31;20084;-79
2023/03/24 11:04:10;;;;;;;8.65;3.75;;;;;;;23.84;31.59;97429.62;4487221;32;20124;-79
2023/03/24 11:06:37;;;;;;;9.32;4.07;;;;;;;23.79;30.92;97424.00;4485928;32;20387;-80
2023/03/24 11:12:56;;;;;;;8.25;3.75;;;;;;;24.50;31.60;97428.62;4487450;32;20098;-80
2023/03/24 11:15:29;;;;;;;9.25;4.35;;;;;;;24.44;31.06;97430.09;4487299;31;20355;-80
2023/03/24 11:22:03;;;;;;;9.68;3.58;;;;;;;24.43;30.30;97411.81;4487239;32;20229;-80
2023/03/24 11:24:35;;;;;;;8.75;3.37;;;;;;;24.47;31.35;97416.59;4485828;32;20080;-81
2023/03/24 11:27:02;;;;;;;8.68;3.30;;;;;;;24.23;30.85;97403.41;4486011;32;20167;-80
2023/03/24 11:32:44;;;;;;;8.55;3.35;;;;;;;24.20;31.28;97399.31;4486475;32;20189;-80
2023/03/24 11:35:16;;;;;;;14.07;3.80;;;;;;;24.84;30.23;97406.44;4487165;31;20132;-80
2023/03/24 11:41:52;;;;;;;8.73;3.78;;;;;;;23.99;30.90;97396.34;4272668;32;6919179;-81
2023/03/24 11:44:24;;;;;;;9.45;3.35;;;;;;;24.10;31.53;97392.56;4486705;31;20709;-80
2023/03/24 11:47:00;;;;;;;9.45;3.75;;;;;;;24.30;31.46;97396.50;4485487;32;20136;-82
2023/03/24 11:53:23;;;;;;;9.60;3.65;;;;;;;23.19;32.21;97385.56;4486589;32;20168;-82
2023/03/24 11:55:54;;;;;;;10.38;4.32;;;;;;;23.03;32.03;97377.59;4485611;32;20104;-81
2023/03/24 12:04:45;;;;;;;12.50;3.92;;;;;;;23.01;32.54;97376.94;4486663;32;20506;-81
2023/03/24 12:07:27;;;;;;;9.25;4.00;;;;;;;23.13;32.51;97359.88;4486388;31;20447;-80
2023/03/24 12:10:35;;;;;;;10.27;3.62;;;;;;;22.70;32.64;97355.59;4486649;32;20108;-81
2023/03/24 12:13:10;;;;;;;12.02;4.40;;;;;;;22.53;32.68;97344.97;4480152;31;20077;-81
2023/03/24 12:16:29;;;;;;;7.65;3.12;;;;;;;22.90;32.57;97340.41;4486535;31;20461;-80
2023/03/24 12:22:59;;;;;;;10.88;3.35;;;;;;;23.57;31.76;97347.25;4486252;32;20121;-80
2023/03/24 12:25:41;;;;;;;9.50;3.15;;;;;;;23.93;31.24;97334.63;4486326;31;20145;-80
2023/03/24 12:34:47;;;;;;;11.57;3.35;;;;;;;24.23;30.58;97340.16;4486156;32;20473;-81
2023/03/24 12:37:21;;;;;;;10.80;3.45;;;;;;;24.70;31.01;97337.56;4486127;31;20157;-81
2023/03/24 12:40:31;;;;;;;9.80;3.65;;;;;;;24.41;30.69;97337.34;4486290;31;20405;-81
2023/03/24 12:43:10;;;;;;;9.45;3.25;;;;;;;24.36;30.45;97343.13;4486021;31;20546;-82
2023/03/24 12:45:43;;;;;;;7.32;3.30;;;;;;;24.45;30.09;97336.81;4487045;31;20085;-83
2023/03/24 12:52:03;;;;;;;7.85;3.35;;;;;;;23.79;30.88;97335.28;4498312;32;20121;-83
2023/03/24 12:54:49;;;;;;;9.63;3.05;;;;;;;23.85;31.22;97324.09;4495261;31;20096;-82
2023/03/24 12:57:17;;;;;;;7.28;2.90;;;;;;;24.06;31.03;97314.84;4490264;32;20057;-80
2023/03/24 12:59:49;;;;;;;10.95;3.10;;;;;;;24.35;30.22;97311.66;4494390;32;20473;-85
2023/03/24 13:02:38;;;;;;;11.20;3.05;;;;;;;24.46;30.55;97313.94;4491955;31;20156;-83
2023/03/24 13:05:13;;;;;;;8.05;2.75;;;;;;;24.71;29.57;97312.03;4492060;32;20453;-81
2023/03/24 13:11:53;;;;;;;6.30;2.87;;;;;;;25.03;29.57;97301.31;4491639;32;20110;-83
2023/03/24 13:15:02;;;;;;;7.03;2.90;;;;;;;25.00;29.30;97298.19;4495151;31;20089;-84
2023/03/24 13:21:50;;;;;;;11.55;4.03;;;;;;;24.33;30.10;97292.53;4493110;32;20149;-82
2023/03/24 13:24:18;;;;;;;7.65;3.40;;;;;;;23.91;30.24;97290.97;4489117;31;20151;-84
2023/03/24 13:27:03;;;;;;;7.12;3.00;;;;;;;23.84;30.41;97292.66;4487495;32;20108;-84
2023/03/24 13:32:44;;;;;;;9.00;3.10;;;;;;;23.96;30.93;97283.41;4487861;32;20137;-83
2023/03/24 13:35:32;;;;;;;9.00;3.47;;;;;;;24.08;31.07;97287.31;4486874;32;20072;-83
2023/03/24 13:41:56;;;;;;;8.88;3.00;;;;;;;24.12;29.99;97272.81;4487940;32;20413;-84
2023/03/24 13:44:27;;;;;;;10.07;3.12;;;;;;;23.16;31.42;97274.50;4487766;31;20442;-84